sensor_id;sensor_type;location;lat;lon;timestamp;P1;durP1;ratioP1;P2;durP2;ratioP2
68886;SDS011;55925;51.764;6.402;2023-04-03T00:02:20;6.97;;;2.50;;
68886;SDS011;55925;51.764;6.402;2023-04-03T00:04:46;8.85;;;2.65;;
68886;SDS011;55925;51.764;6.402;2023-04-03T00:07:12;5.65;;;2.70;;
68886;SDS011;55925;51.764;6.402;2023-04-03T00:09:39;6.07;;;2.63;;
68886;SDS011;55925;51.764;6.402;2023-04-03T00:12:05;6.80;;;2.92;;
68886;SDS011;55925;51.764;6.402;2023-04-03T00:14:31;6.03;;;2.90;;
68886;SDS011;55925;51.764;6.402;2023-04-03T00:16:57;5.85;;;2.47;;
68886;SDS011;55925;51.764;6.402;2023-04-03T00:19:23;6.50;;;2.47;;
68886;SDS011;55925;51.764;6.402;2023-04-03T00:21:52;6.18;;;2.50;;
68886;SDS011;55925;51.764;6.402;2023-04-03T00:24:18;4.65;;;2.00;;
68886;SDS011;55925;51.764;6.402;2023-04-03T00:26:44;5.80;;;2.20;;
68886;SDS011;55925;51.764;6.402;2023-04-03T00:29:10;4.80;;;2.70;;
68886;SDS011;55925;51.764;6.402;2023-04-03T00:31:36;6.07;;;2.00;;
68886;SDS011;55925;51.764;6.402;2023-04-03T00:34:02;6.63;;;1.83;;
68886;SDS011;55925;51.764;6.402;2023-04-03T00:36:28;4.97;;;1.90;;
68886;SDS011;55925;51.764;6.402;2023-04-03T00:38:54;5.63;;;1.65;;
68886;SDS011;55925;51.764;6.402;2023-04-03T00:41:20;4.85;;;2.00;;
68886;SDS011;55925;51.764;6.402;2023-04-03T00:43:47;4.28;;;1.92;;
68886;SDS011;55925;51.764;6.402;2023-04-03T00:46:13;4.90;;;1.90;;
68886;SDS011;55925;51.764;6.402;2023-04-03T00:48:40;4.80;;;1.75;;
68886;SDS011;55925;51.764;6.402;2023-04-03T00:51:09;4.57;;;1.60;;
68886;SDS011;55925;51.764;6.402;2023-04-03T00:53:38;4.75;;;1.67;;
68886;SDS011;55925;51.764;6.402;2023-04-03T00:56:06;4.88;;;1.55;;
68886;SDS011;55925;51.764;6.402;2023-04-03T00:58:37;4.50;;;1.80;;
68886;SDS011;55925;51.764;6.402;2023-04-03T01:01:05;4.22;;;1.73;;
68886;SDS011;55925;51.764;6.402;2023-04-03T01:03:32;5.10;;;1.90;;
68886;SDS011;55925;51.764;6.402;2023-04-03T01:05:58;5.32;;;1.88;;
68886;SDS011;55925;51.764;6.402;2023-04-03T01:08:24;4.38;;;1.75;;
68886;SDS011;55925;51.764;6.402;2023-04-03T01:10:51;4.30;;;1.92;;
68886;SDS011;55925;51.764;6.402;2023-04-03T01:13:30;4.30;;;1.42;;
68886;SDS011;55925;51.764;6.402;2023-04-03T01:15:57;5.50;;;1.50;;
68886;SDS011;55925;51.764;6.402;2023-04-03T01:18:25;4.47;;;1.83;;
68886;SDS011;55925;51.764;6.402;2023-04-03T01:23:23;7.20;;;1.80;;
68886;SDS011;55925;51.764;6.402;2023-04-03T01:25:51;4.28;;;1.85;;
68886;SDS011;55925;51.764;6.402;2023-04-03T01:30:53;6.03;;;1.98;;
68886;SDS011;55925;51.764;6.402;2023-04-03T01:33:21;4.78;;;1.80;;
68886;SDS011;55925;51.764;6.402;2023-04-03T01:35:47;7.03;;;1.70;;
68886;SDS011;55925;51.764;6.402;2023-04-03T01:38:13;4.32;;;1.63;;
68886;SDS011;55925;51.764;6.402;2023-04-03T01:40:39;4.43;;;1.48;;
68886;SDS011;55925;51.764;6.402;2023-04-03T01:43:05;4.43;;;1.88;;
68886;SDS011;55925;51.764;6.402;2023-04-03T01:45:31;4.85;;;1.63;;
68886;SDS011;55925;51.764;6.402;2023-04-03T01:47:57;5.43;;;1.83;;
68886;SDS011;55925;51.764;6.402;2023-04-03T01:50:23;5.05;;;1.70;;
68886;SDS011;55925;51.764;6.402;2023-04-03T01:52:50;5.72;;;1.58;;
68886;SDS011;55925;51.764;6.402;2023-04-03T01:55:16;9.18;;;2.05;;
68886;SDS011;55925;51.764;6.402;2023-04-03T01:57:42;5.72;;;2.22;;
68886;SDS011;55925;51.764;6.402;2023-04-03T02:00:08;6.10;;;2.13;;
68886;SDS011;55925;51.764;6.402;2023-04-03T02:02:34;4.50;;;1.92;;
68886;SDS011;55925;51.764;6.402;2023-04-03T02:05:00;8.60;;;2.08;;
68886;SDS011;55925;51.764;6.402;2023-04-03T02:07:26;5.55;;;2.00;;
68886;SDS011;55925;51.764;6.402;2023-04-03T02:09:52;5.75;;;2.15;;
68886;SDS011;55925;51.764;6.402;2023-04-03T02:12:18;5.78;;;2.28;;
68886;SDS011;55925;51.764;6.402;2023-04-03T02:14:44;4.97;;;1.63;;
68886;SDS011;55925;51.764;6.402;2023-04-03T02:17:10;6.60;;;1.65;;
68886;SDS011;55925;51.764;6.402;2023-04-03T02:19:36;5.90;;;2.03;;
68886;SDS011;55925;51.764;6.402;2023-04-03T02:22:03;4.80;;;1.90;;
68886;SDS011;55925;51.764;6.402;2023-04-03T02:24:29;5.97;;;1.70;;
68886;SDS011;55925;51.764;6.402;2023-04-03T02:26:55;4.45;;;1.50;;
68886;SDS011;55925;51.764;6.402;2023-04-03T02:29:21;6.00;;;1.50;;
68886;SDS011;55925;51.764;6.402;2023-04-03T02:31:48;5.15;;;2.03;;
68886;SDS011;55925;51.764;6.402;2023-04-03T02:34:14;4.60;;;1.70;;
68886;SDS011;55925;51.764;6.402;2023-04-03T02:36:40;3.92;;;1.20;;
68886;SDS011;55925;51.764;6.402;2023-04-03T02:39:06;6.28;;;1.80;;
68886;SDS011;55925;51.764;6.402;2023-04-03T02:41:32;5.40;;;1.75;;
68886;SDS011;55925;51.764;6.402;2023-04-03T02:44:00;7.13;;;1.60;;
68886;SDS011;55925;51.764;6.402;2023-04-03T02:46:26;5.75;;;1.80;;
68886;SDS011;55925;51.764;6.402;2023-04-03T02:48:52;4.65;;;1.92;;
68886;SDS011;55925;51.764;6.402;2023-04-03T02:51:18;4.38;;;1.80;;
68886;SDS011;55925;51.764;6.402;2023-04-03T02:53:44;7.82;;;2.05;;
68886;SDS011;55925;51.764;6.402;2023-04-03T02:56:10;5.57;;;1.95;;
68886;SDS011;55925;51.764;6.402;2023-04-03T02:58:36;4.72;;;1.80;;
68886;SDS011;55925;51.764;6.402;2023-04-03T03:01:02;5.75;;;1.77;;
68886;SDS011;55925;51.764;6.402;2023-04-03T03:03:28;9.27;;;1.92;;
68886;SDS011;55925;51.764;6.402;2023-04-03T03:06:05;4.63;;;2.20;;
68886;SDS011;55925;51.764;6.402;2023-04-03T03:08:31;4.90;;;1.70;;
68886;SDS011;55925;51.764;6.402;2023-04-03T03:10:57;3.80;;;1.73;;
68886;SDS011;55925;51.764;6.402;2023-04-03T03:13:23;6.88;;;1.90;;
68886;SDS011;55925;51.764;6.402;2023-04-03T03:15:49;5.15;;;1.48;;
68886;SDS011;55925;51.764;6.402;2023-04-03T03:18:15;6.18;;;1.95;;
68886;SDS011;55925;51.764;6.402;2023-04-03T03:20:41;6.15;;;1.80;;
68886;SDS011;55925;51.764;6.402;2023-04-03T03:23:08;5.63;;;2.05;;
68886;SDS011;55925;51.764;6.402;2023-04-03T03:25:37;4.78;;;1.60;;
68886;SDS011;55925;51.764;6.402;2023-04-03T03:28:03;7.68;;;2.13;;
68886;SDS011;55925;51.764;6.402;2023-04-03T03:30:30;6.13;;;2.05;;
68886;SDS011;55925;51.764;6.402;2023-04-03T03:32:56;4.63;;;1.70;;
68886;SDS011;55925;51.764;6.402;2023-04-03T03:35:22;5.20;;;1.92;;
68886;SDS011;55925;51.764;6.402;2023-04-03T03:37:48;6.07;;;1.42;;
68886;SDS011;55925;51.764;6.402;2023-04-03T03:40:14;5.78;;;1.88;;
68886;SDS011;55925;51.764;6.402;2023-04-03T03:42:40;4.63;;;1.42;;
68886;SDS011;55925;51.764;6.402;2023-04-03T03:45:06;4.80;;;1.75;;
68886;SDS011;55925;51.764;6.402;2023-04-03T03:47:33;5.53;;;1.55;;
68886;SDS011;55925;51.764;6.402;2023-04-03T03:49:59;4.38;;;1.40;;
68886;SDS011;55925;51.764;6.402;2023-04-03T03:52:25;4.53;;;1.90;;
68886;SDS011;55925;51.764;6.402;2023-04-03T03:54:51;3.88;;;1.60;;
68886;SDS011;55925;51.764;6.402;2023-04-03T03:57:18;5.18;;;1.55;;
68886;SDS011;55925;51.764;6.402;2023-04-03T03:59:44;6.30;;;1.63;;
68886;SDS011;55925;51.764;6.402;2023-04-03T04:02:10;4.28;;;1.52;;
68886;SDS011;55925;51.764;6.402;2023-04-03T04:04:37;5.50;;;1.85;;
68886;SDS011;55925;51.764;6.402;2023-04-03T04:07:03;6.07;;;1.73;;
68886;SDS011;55925;51.764;6.402;2023-04-03T04:09:29;13.82;;;2.63;;
68886;SDS011;55925;51.764;6.402;2023-04-03T04:11:55;5.88;;;1.63;;
68886;SDS011;55925;51.764;6.402;2023-04-03T04:14:21;6.50;;;1.70;;
68886;SDS011;55925;51.764;6.402;2023-04-03T04:16:47;5.40;;;1.33;;
68886;SDS011;55925;51.764;6.402;2023-04-03T04:19:13;6.32;;;1.55;;
68886;SDS011;55925;51.764;6.402;2023-04-03T04:21:39;4.60;;;1.70;;
68886;SDS011;55925;51.764;6.402;2023-04-03T04:24:06;5.72;;;1.58;;
68886;SDS011;55925;51.764;6.402;2023-04-03T04:26:32;4.57;;;1.63;;
68886;SDS011;55925;51.764;6.402;2023-04-03T04:28:58;7.90;;;1.90;;
68886;SDS011;55925;51.764;6.402;2023-04-03T04:31:24;4.45;;;1.85;;
68886;SDS011;55925;51.764;6.402;2023-04-03T04:33:51;3.70;;;1.42;;
68886;SDS011;55925;51.764;6.402;2023-04-03T04:36:17;4.82;;;1.63;;
68886;SDS011;55925;51.764;6.402;2023-04-03T04:38:43;5.50;;;1.95;;
68886;SDS011;55925;51.764;6.402;2023-04-03T04:41:09;4.28;;;1.65;;
68886;SDS011;55925;51.764;6.402;2023-04-03T04:43:35;5.90;;;1.60;;
68886;SDS011;55925;51.764;6.402;2023-04-03T04:46:04;6.70;;;2.10;;
68886;SDS011;55925;51.764;6.402;2023-04-03T04:48:30;5.35;;;1.40;;
68886;SDS011;55925;51.764;6.402;2023-04-03T04:50:56;4.50;;;1.38;;
68886;SDS011;55925;51.764;6.402;2023-04-03T04:53:23;8.10;;;2.33;;
68886;SDS011;55925;51.764;6.402;2023-04-03T04:55:49;3.90;;;1.05;;
68886;SDS011;55925;51.764;6.402;2023-04-03T04:58:15;6.22;;;1.80;;
68886;SDS011;55925;51.764;6.402;2023-04-03T05:00:41;5.18;;;1.73;;
68886;SDS011;55925;51.764;6.402;2023-04-03T05:03:07;8.98;;;1.67;;
68886;SDS011;55925;51.764;6.402;2023-04-03T05:05:33;5.65;;;1.92;;
68886;SDS011;55925;51.764;6.402;2023-04-03T05:08:00;5.30;;;2.00;;
68886;SDS011;55925;51.764;6.402;2023-04-03T05:10:27;5.93;;;1.55;;
68886;SDS011;55925;51.764;6.402;2023-04-03T05:12:52;4.28;;;1.42;;
68886;SDS011;55925;51.764;6.402;2023-04-03T05:15:19;6.93;;;1.70;;
68886;SDS011;55925;51.764;6.402;2023-04-03T05:17:45;5.85;;;1.60;;
68886;SDS011;55925;51.764;6.402;2023-04-03T05:20:11;5.00;;;1.70;;
68886;SDS011;55925;51.764;6.402;2023-04-03T05:22:37;4.78;;;1.27;;
68886;SDS011;55925;51.764;6.402;2023-04-03T05:25:04;7.32;;;1.60;;
68886;SDS011;55925;51.764;6.402;2023-04-03T05:27:30;6.43;;;1.80;;
68886;SDS011;55925;51.764;6.402;2023-04-03T05:29:56;4.57;;;2.42;;
68886;SDS011;55925;51.764;6.402;2023-04-03T05:32:23;3.65;;;1.70;;
68886;SDS011;55925;51.764;6.402;2023-04-03T05:34:51;3.47;;;1.40;;
68886;SDS011;55925;51.764;6.402;2023-04-03T05:37:17;4.18;;;1.75;;
68886;SDS011;55925;51.764;6.402;2023-04-03T05:39:43;5.35;;;1.98;;
68886;SDS011;55925;51.764;6.402;2023-04-03T05:42:09;4.57;;;1.48;;
68886;SDS011;55925;51.764;6.402;2023-04-03T05:44:36;6.40;;;1.48;;
68886;SDS011;55925;51.764;6.402;2023-04-03T05:47:02;4.60;;;1.55;;
68886;SDS011;55925;51.764;6.402;2023-04-03T05:49:28;3.90;;;1.55;;
68886;SDS011;55925;51.764;6.402;2023-04-03T05:51:55;7.70;;;1.95;;
68886;SDS011;55925;51.764;6.402;2023-04-03T05:54:24;4.90;;;1.48;;
68886;SDS011;55925;51.764;6.402;2023-04-03T05:56:51;4.25;;;1.30;;
68886;SDS011;55925;51.764;6.402;2023-04-03T05:59:17;6.20;;;1.55;;
68886;SDS011;55925;51.764;6.402;2023-04-03T06:01:43;5.22;;;1.65;;
68886;SDS011;55925;51.764;6.402;2023-04-03T06:04:09;4.03;;;1.50;;
68886;SDS011;55925;51.764;6.402;2023-04-03T06:06:48;6.82;;;1.90;;
68886;SDS011;55925;51.764;6.402;2023-04-03T06:09:16;4.80;;;1.48;;
68886;SDS011;55925;51.764;6.402;2023-04-03T06:11:43;9.80;;;2.45;;
68886;SDS011;55925;51.764;6.402;2023-04-03T06:14:09;7.80;;;1.75;;
68886;SDS011;55925;51.764;6.402;2023-04-03T06:16:36;5.20;;;1.60;;
68886;SDS011;55925;51.764;6.402;2023-04-03T06:19:02;8.55;;;2.42;;
68886;SDS011;55925;51.764;6.402;2023-04-03T06:21:29;4.70;;;1.60;;
68886;SDS011;55925;51.764;6.402;2023-04-03T06:23:55;6.72;;;1.90;;
68886;SDS011;55925;51.764;6.402;2023-04-03T06:26:21;5.97;;;1.73;;
68886;SDS011;55925;51.764;6.402;2023-04-03T06:28:47;4.63;;;1.80;;
68886;SDS011;55925;51.764;6.402;2023-04-03T06:31:13;6.13;;;2.30;;
68886;SDS011;55925;51.764;6.402;2023-04-03T06:33:39;8.93;;;2.15;;
68886;SDS011;55925;51.764;6.402;2023-04-03T06:36:05;5.78;;;1.92;;
68886;SDS011;55925;51.764;6.402;2023-04-03T06:38:32;4.55;;;1.77;;
68886;SDS011;55925;51.764;6.402;2023-04-03T06:40:59;9.20;;;2.15;;
68886;SDS011;55925;51.764;6.402;2023-04-03T06:43:25;6.45;;;1.90;;
68886;SDS011;55925;51.764;6.402;2023-04-03T06:45:51;4.60;;;1.67;;
68886;SDS011;55925;51.764;6.402;2023-04-03T06:48:17;4.20;;;1.70;;
68886;SDS011;55925;51.764;6.402;2023-04-03T06:50:43;9.77;;;2.08;;
68886;SDS011;55925;51.764;6.402;2023-04-03T06:53:10;5.88;;;1.80;;
68886;SDS011;55925;51.764;6.402;2023-04-03T06:55:37;5.57;;;1.95;;
68886;SDS011;55925;51.764;6.402;2023-04-03T06:58:03;5.40;;;1.67;;
68886;SDS011;55925;51.764;6.402;2023-04-03T07:00:30;6.07;;;1.65;;
68886;SDS011;55925;51.764;6.402;2023-04-03T07:02:56;4.22;;;1.63;;
68886;SDS011;55925;51.764;6.402;2023-04-03T07:05:22;4.80;;;1.60;;
68886;SDS011;55925;51.764;6.402;2023-04-03T07:07:49;4.22;;;1.20;;
68886;SDS011;55925;51.764;6.402;2023-04-03T07:10:16;6.05;;;1.92;;
68886;SDS011;55925;51.764;6.402;2023-04-03T07:12:42;4.80;;;1.63;;
68886;SDS011;55925;51.764;6.402;2023-04-03T07:15:08;4.72;;;1.70;;
68886;SDS011;55925;51.764;6.402;2023-04-03T07:17:34;5.18;;;1.85;;
68886;SDS011;55925;51.764;6.402;2023-04-03T07:20:01;5.32;;;1.92;;
68886;SDS011;55925;51.764;6.402;2023-04-03T07:22:27;4.38;;;1.40;;
68886;SDS011;55925;51.764;6.402;2023-04-03T07:24:53;6.53;;;1.60;;
68886;SDS011;55925;51.764;6.402;2023-04-03T07:27:20;4.95;;;1.40;;
68886;SDS011;55925;51.764;6.402;2023-04-03T07:29:46;7.05;;;1.50;;
68886;SDS011;55925;51.764;6.402;2023-04-03T07:32:13;7.05;;;2.83;;
68886;SDS011;55925;51.764;6.402;2023-04-03T07:34:40;5.25;;;2.22;;
68886;SDS011;55925;51.764;6.402;2023-04-03T07:37:06;4.43;;;1.45;;
68886;SDS011;55925;51.764;6.402;2023-04-03T07:39:34;4.93;;;1.45;;
68886;SDS011;55925;51.764;6.402;2023-04-03T07:42:00;3.47;;;1.33;;
68886;SDS011;55925;51.764;6.402;2023-04-03T07:44:26;5.90;;;1.80;;
68886;SDS011;55925;51.764;6.402;2023-04-03T07:46:52;5.72;;;1.50;;
68886;SDS011;55925;51.764;6.402;2023-04-03T07:49:20;4.32;;;1.50;;
68886;SDS011;55925;51.764;6.402;2023-04-03T07:51:48;7.78;;;1.35;;
68886;SDS011;55925;51.764;6.402;2023-04-03T07:54:14;6.13;;;1.58;;
68886;SDS011;55925;51.764;6.402;2023-04-03T07:56:40;5.45;;;1.58;;
68886;SDS011;55925;51.764;6.402;2023-04-03T07:59:07;5.10;;;1.73;;
68886;SDS011;55925;51.764;6.402;2023-04-03T08:01:33;3.63;;;1.20;;
68886;SDS011;55925;51.764;6.402;2023-04-03T08:03:59;5.95;;;1.35;;
68886;SDS011;55925;51.764;6.402;2023-04-03T08:06:26;4.07;;;1.20;;
68886;SDS011;55925;51.764;6.402;2023-04-03T08:08:52;5.40;;;1.30;;
68886;SDS011;55925;51.764;6.402;2023-04-03T08:11:18;4.30;;;1.13;;
68886;SDS011;55925;51.764;6.402;2023-04-03T08:13:45;4.72;;;1.38;;
68886;SDS011;55925;51.764;6.402;2023-04-03T08:16:12;2.67;;;1.10;;
68886;SDS011;55925;51.764;6.402;2023-04-03T08:18:39;3.15;;;1.00;;
68886;SDS011;55925;51.764;6.402;2023-04-03T08:21:06;3.38;;;1.10;;
68886;SDS011;55925;51.764;6.402;2023-04-03T08:23:32;4.72;;;1.60;;
68886;SDS011;55925;51.764;6.402;2023-04-03T08:25:58;4.85;;;1.80;;
68886;SDS011;55925;51.764;6.402;2023-04-03T08:28:24;3.05;;;1.00;;
68886;SDS011;55925;51.764;6.402;2023-04-03T08:30:50;4.97;;;1.20;;
68886;SDS011;55925;51.764;6.402;2023-04-03T08:33:16;6.38;;;1.30;;
68886;SDS011;55925;51.764;6.402;2023-04-03T08:35:42;4.18;;;0.98;;
68886;SDS011;55925;51.764;6.402;2023-04-03T08:38:09;2.42;;;0.90;;
68886;SDS011;55925;51.764;6.402;2023-04-03T08:40:35;3.40;;;1.00;;
68886;SDS011;55925;51.764;6.402;2023-04-03T08:48:20;1.90;;;0.80;;
68886;SDS011;55925;51.764;6.402;2023-04-03T08:50:47;2.42;;;0.68;;
68886;SDS011;55925;51.764;6.402;2023-04-03T08:53:16;4.18;;;0.90;;
68886;SDS011;55925;51.764;6.402;2023-04-03T08:55:45;3.35;;;1.25;;
68886;SDS011;55925;51.764;6.402;2023-04-03T08:58:28;4.13;;;0.98;;
68886;SDS011;55925;51.764;6.402;2023-04-03T09:00:59;4.07;;;0.90;;
68886;SDS011;55925;51.764;6.402;2023-04-03T09:03:28;3.85;;;1.00;;
68886;SDS011;55925;51.764;6.402;2023-04-03T09:06:09;6.35;;;0.98;;
68886;SDS011;55925;51.764;6.402;2023-04-03T09:11:27;4.32;;;1.17;;
68886;SDS011;55925;51.764;6.402;2023-04-03T09:16:27;2.83;;;0.90;;
68886;SDS011;55925;51.764;6.402;2023-04-03T09:19:02;2.83;;;0.88;;
68886;SDS011;55925;51.764;6.402;2023-04-03T09:21:37;3.85;;;1.08;;
68886;SDS011;55925;51.764;6.402;2023-04-03T09:24:04;2.97;;;0.80;;
68886;SDS011;55925;51.764;6.402;2023-04-03T09:26:36;3.38;;;1.00;;
68886;SDS011;55925;51.764;6.402;2023-04-03T09:29:05;2.38;;;1.35;;
68886;SDS011;55925;51.764;6.402;2023-04-03T09:31:37;3.40;;;1.10;;
68886;SDS011;55925;51.764;6.402;2023-04-03T09:34:06;4.43;;;0.90;;
68886;SDS011;55925;51.764;6.402;2023-04-03T09:39:18;1.80;;;0.60;;
68886;SDS011;55925;51.764;6.402;2023-04-03T09:44:24;3.83;;;1.20;;
68886;SDS011;55925;51.764;6.402;2023-04-03T09:46:50;2.00;;;0.73;;
68886;SDS011;55925;51.764;6.402;2023-04-03T09:49:17;3.00;;;0.80;;
68886;SDS011;55925;51.764;6.402;2023-04-03T09:51:43;4.00;;;0.90;;
68886;SDS011;55925;51.764;6.402;2023-04-03T09:54:30;2.97;;;0.77;;
68886;SDS011;55925;51.764;6.402;2023-04-03T09:56:56;2.20;;;0.70;;
68886;SDS011;55925;51.764;6.402;2023-04-03T09:59:23;4.30;;;0.90;;
68886;SDS011;55925;51.764;6.402;2023-04-03T10:01:57;2.75;;;0.85;;
68886;SDS011;55925;51.764;6.402;2023-04-03T10:04:23;3.17;;;0.98;;
68886;SDS011;55925;51.764;6.402;2023-04-03T10:06:51;2.22;;;0.80;;
68886;SDS011;55925;51.764;6.402;2023-04-03T10:09:22;3.38;;;1.10;;
68886;SDS011;55925;51.764;6.402;2023-04-03T10:12:08;1.98;;;0.73;;
68886;SDS011;55925;51.764;6.402;2023-04-03T10:14:36;3.40;;;1.00;;
68886;SDS011;55925;51.764;6.402;2023-04-03T10:17:18;1.88;;;0.70;;
68886;SDS011;55925;51.764;6.402;2023-04-03T10:19:46;3.75;;;0.82;;
68886;SDS011;55925;51.764;6.402;2023-04-03T10:29:50;3.92;;;1.00;;
68886;SDS011;55925;51.764;6.402;2023-04-03T10:35:02;3.88;;;1.27;;
68886;SDS011;55925;51.764;6.402;2023-04-03T10:37:46;2.70;;;0.90;;
68886;SDS011;55925;51.764;6.402;2023-04-03T10:43:07;2.97;;;0.90;;
68886;SDS011;55925;51.764;6.402;2023-04-03T10:45:45;3.25;;;1.20;;
68886;SDS011;55925;51.764;6.402;2023-04-03T10:50:58;2.63;;;0.80;;
68886;SDS011;55925;51.764;6.402;2023-04-03T10:56:13;3.92;;;1.05;;
68886;SDS011;55925;51.764;6.402;2023-04-03T10:58:51;6.57;;;1.27;;
68886;SDS011;55925;51.764;6.402;2023-04-03T11:03:47;3.15;;;1.00;;
68886;SDS011;55925;51.764;6.402;2023-04-03T11:06:14;4.18;;;0.93;;
68886;SDS011;55925;51.764;6.402;2023-04-03T11:08:55;3.20;;;1.17;;
68886;SDS011;55925;51.764;6.402;2023-04-03T11:11:33;2.80;;;1.00;;
68886;SDS011;55925;51.764;6.402;2023-04-03T11:16:46;3.53;;;1.10;;
68886;SDS011;55925;51.764;6.402;2023-04-03T11:22:33;3.28;;;1.30;;
68886;SDS011;55925;51.764;6.402;2023-04-03T11:24:33;4.03;;;1.15;;
68886;SDS011;55925;51.764;6.402;2023-04-03T11:27:00;4.95;;;1.20;;
68886;SDS011;55925;51.764;6.402;2023-04-03T11:29:32;2.65;;;0.93;;
68886;SDS011;55925;51.764;6.402;2023-04-03T11:34:34;3.45;;;1.00;;
68886;SDS011;55925;51.764;6.402;2023-04-03T11:37:06;3.65;;;1.13;;
68886;SDS011;55925;51.764;6.402;2023-04-03T11:39:37;4.50;;;1.40;;
68886;SDS011;55925;51.764;6.402;2023-04-03T11:44:45;4.22;;;1.30;;
68886;SDS011;55925;51.764;6.402;2023-04-03T11:47:11;4.15;;;1.15;;
68886;SDS011;55925;51.764;6.402;2023-04-03T12:05:50;3.38;;;1.23;;
68886;SDS011;55925;51.764;6.402;2023-04-03T12:08:38;4.53;;;1.23;;
68886;SDS011;55925;51.764;6.402;2023-04-03T12:16:05;4.75;;;1.20;;
68886;SDS011;55925;51.764;6.402;2023-04-03T12:21:03;3.40;;;0.90;;
68886;SDS011;55925;51.764;6.402;2023-04-03T12:23:33;4.07;;;1.10;;
68886;SDS011;55925;51.764;6.402;2023-04-03T12:26:19;2.85;;;0.90;;
68886;SDS011;55925;51.764;6.402;2023-04-03T12:28:46;3.35;;;1.20;;
68886;SDS011;55925;51.764;6.402;2023-04-03T12:31:13;6.78;;;2.00;;
68886;SDS011;55925;51.764;6.402;2023-04-03T12:33:51;4.60;;;1.17;;
68886;SDS011;55925;51.764;6.402;2023-04-03T12:46:54;5.43;;;1.20;;
68886;SDS011;55925;51.764;6.402;2023-04-03T12:49:31;3.22;;;0.93;;
68886;SDS011;55925;51.764;6.402;2023-04-03T12:54:32;3.15;;;0.98;;
68886;SDS011;55925;51.764;6.402;2023-04-03T12:57:08;3.92;;;1.02;;
68886;SDS011;55925;51.764;6.402;2023-04-03T12:59:35;3.40;;;1.20;;
68886;SDS011;55925;51.764;6.402;2023-04-03T13:02:01;3.90;;;1.08;;
68886;SDS011;55925;51.764;6.402;2023-04-03T13:04:29;6.03;;;1.80;;
68886;SDS011;55925;51.764;6.402;2023-04-03T13:06:56;4.25;;;1.30;;
68886;SDS011;55925;51.764;6.402;2023-04-03T13:09:29;4.22;;;1.20;;
68886;SDS011;55925;51.764;6.402;2023-04-03T13:14:22;3.47;;;1.27;;
68886;SDS011;55925;51.764;6.402;2023-04-03T13:17:00;5.72;;;1.33;;
68886;SDS011;55925;51.764;6.402;2023-04-03T13:19:28;5.32;;;1.20;;
68886;SDS011;55925;51.764;6.402;2023-04-03T13:21:57;5.78;;;1.38;;
68886;SDS011;55925;51.764;6.402;2023-04-03T13:24:25;3.45;;;1.20;;
68886;SDS011;55925;51.764;6.402;2023-04-03T13:26:51;4.90;;;1.30;;
68886;SDS011;55925;51.764;6.402;2023-04-03T13:29:22;3.65;;;1.00;;
68886;SDS011;55925;51.764;6.402;2023-04-03T13:31:51;4.90;;;1.10;;
68886;SDS011;55925;51.764;6.402;2023-04-03T13:34:18;2.70;;;0.93;;
68886;SDS011;55925;51.764;6.402;2023-04-03T13:36:50;5.82;;;1.27;;
68886;SDS011;55925;51.764;6.402;2023-04-03T13:39:25;4.65;;;1.65;;
68886;SDS011;55925;51.764;6.402;2023-04-03T13:41:52;5.60;;;1.20;;
68886;SDS011;55925;51.764;6.402;2023-04-03T13:46:52;5.13;;;1.40;;
68886;SDS011;55925;51.764;6.402;2023-04-03T13:49:22;4.90;;;1.20;;
68886;SDS011;55925;51.764;6.402;2023-04-03T13:51:53;2.80;;;1.00;;
68886;SDS011;55925;51.764;6.402;2023-04-03T13:54:28;4.35;;;1.40;;
68886;SDS011;55925;51.764;6.402;2023-04-03T13:56:55;3.45;;;1.33;;
68886;SDS011;55925;51.764;6.402;2023-04-03T13:59:29;4.53;;;1.60;;
68886;SDS011;55925;51.764;6.402;2023-04-03T14:06:53;3.55;;;1.30;;
68886;SDS011;55925;51.764;6.402;2023-04-03T14:09:20;4.03;;;1.10;;
68886;SDS011;55925;51.764;6.402;2023-04-03T14:11:48;2.92;;;1.08;;
68886;SDS011;55925;51.764;6.402;2023-04-03T14:14:17;4.05;;;1.30;;
68886;SDS011;55925;51.764;6.402;2023-04-03T14:16:47;4.70;;;1.45;;
68886;SDS011;55925;51.764;6.402;2023-04-03T14:19:24;5.22;;;1.35;;
68886;SDS011;55925;51.764;6.402;2023-04-03T14:21:51;7.03;;;1.58;;
68886;SDS011;55925;51.764;6.402;2023-04-03T14:24:18;4.40;;;1.20;;
68886;SDS011;55925;51.764;6.402;2023-04-03T14:26:45;4.97;;;1.30;;
68886;SDS011;55925;51.764;6.402;2023-04-03T14:29:12;2.30;;;0.93;;
68886;SDS011;55925;51.764;6.402;2023-04-03T14:31:38;3.30;;;1.05;;
68886;SDS011;55925;51.764;6.402;2023-04-03T14:34:05;4.53;;;1.15;;
68886;SDS011;55925;51.764;6.402;2023-04-03T14:36:31;3.63;;;1.15;;
68886;SDS011;55925;51.764;6.402;2023-04-03T14:38:58;3.00;;;1.15;;
68886;SDS011;55925;51.764;6.402;2023-04-03T14:41:24;5.20;;;1.35;;
68886;SDS011;55925;51.764;6.402;2023-04-03T14:43:51;3.53;;;1.10;;
68886;SDS011;55925;51.764;6.402;2023-04-03T14:46:36;4.20;;;1.30;;
68886;SDS011;55925;51.764;6.402;2023-04-03T14:49:03;3.03;;;1.08;;
68886;SDS011;55925;51.764;6.402;2023-04-03T14:51:32;4.38;;;1.45;;
68886;SDS011;55925;51.764;6.402;2023-04-03T14:53:58;5.93;;;1.35;;
68886;SDS011;55925;51.764;6.402;2023-04-03T14:56:26;4.57;;;1.77;;
68886;SDS011;55925;51.764;6.402;2023-04-03T14:58:54;4.63;;;1.45;;
68886;SDS011;55925;51.764;6.402;2023-04-03T15:01:21;3.70;;;1.10;;
68886;SDS011;55925;51.764;6.402;2023-04-03T15:03:47;3.65;;;1.13;;
68886;SDS011;55925;51.764;6.402;2023-04-03T15:06:13;4.78;;;1.30;;
68886;SDS011;55925;51.764;6.402;2023-04-03T15:08:40;6.07;;;1.40;;
68886;SDS011;55925;51.764;6.402;2023-04-03T15:11:07;4.10;;;1.50;;
68886;SDS011;55925;51.764;6.402;2023-04-03T15:13:33;3.85;;;1.45;;
68886;SDS011;55925;51.764;6.402;2023-04-03T15:15:59;5.20;;;1.30;;
68886;SDS011;55925;51.764;6.402;2023-04-03T15:18:26;3.40;;;1.27;;
68886;SDS011;55925;51.764;6.402;2023-04-03T15:20:53;7.30;;;1.30;;
68886;SDS011;55925;51.764;6.402;2023-04-03T15:23:20;4.60;;;1.70;;
68886;SDS011;55925;51.764;6.402;2023-04-03T15:25:51;4.70;;;1.30;;
68886;SDS011;55925;51.764;6.402;2023-04-03T15:28:18;3.20;;;1.10;;
68886;SDS011;55925;51.764;6.402;2023-04-03T15:30:47;5.95;;;1.20;;
68886;SDS011;55925;51.764;6.402;2023-04-03T15:33:13;4.20;;;1.30;;
68886;SDS011;55925;51.764;6.402;2023-04-03T15:35:40;7.82;;;1.30;;
68886;SDS011;55925;51.764;6.402;2023-04-03T15:38:06;5.75;;;1.73;;
68886;SDS011;55925;51.764;6.402;2023-04-03T15:40:32;3.67;;;1.20;;
68886;SDS011;55925;51.764;6.402;2023-04-03T15:42:58;5.38;;;1.50;;
68886;SDS011;55925;51.764;6.402;2023-04-03T15:45:24;4.18;;;1.20;;
68886;SDS011;55925;51.764;6.402;2023-04-03T15:47:52;5.57;;;1.63;;
68886;SDS011;55925;51.764;6.402;2023-04-03T15:50:18;4.32;;;1.20;;
68886;SDS011;55925;51.764;6.402;2023-04-03T15:52:44;5.55;;;1.30;;
68886;SDS011;55925;51.764;6.402;2023-04-03T15:55:10;3.83;;;1.17;;
68886;SDS011;55925;51.764;6.402;2023-04-03T15:57:36;4.30;;;1.25;;
68886;SDS011;55925;51.764;6.402;2023-04-03T16:00:03;4.13;;;1.45;;
68886;SDS011;55925;51.764;6.402;2023-04-03T16:02:29;5.10;;;1.25;;
68886;SDS011;55925;51.764;6.402;2023-04-03T16:04:55;5.47;;;1.55;;
68886;SDS011;55925;51.764;6.402;2023-04-03T16:07:21;5.22;;;1.30;;
68886;SDS011;55925;51.764;6.402;2023-04-03T16:09:47;6.07;;;1.67;;
68886;SDS011;55925;51.764;6.402;2023-04-03T16:12:13;3.78;;;1.10;;
68886;SDS011;55925;51.764;6.402;2023-04-03T16:14:39;3.30;;;1.23;;
68886;SDS011;55925;51.764;6.402;2023-04-03T16:17:05;5.32;;;1.48;;
68886;SDS011;55925;51.764;6.402;2023-04-03T16:19:31;4.82;;;1.13;;
68886;SDS011;55925;51.764;6.402;2023-04-03T16:21:57;6.97;;;1.50;;
68886;SDS011;55925;51.764;6.402;2023-04-03T16:24:23;4.82;;;1.13;;
68886;SDS011;55925;51.764;6.402;2023-04-03T16:26:49;6.50;;;1.40;;
68886;SDS011;55925;51.764;6.402;2023-04-03T16:29:15;5.82;;;1.27;;
68886;SDS011;55925;51.764;6.402;2023-04-03T16:31:41;4.65;;;1.30;;